createdAt,value
2022-08-19T00:02:31.610Z,7.00
2022-08-19T00:05:33.312Z,7.63
2022-08-19T00:08:34.993Z,7.00
2022-08-19T00:11:38.488Z,7.80
2022-08-19T00:14:40.243Z,7.03
2022-08-19T00:17:43.471Z,7.27
2022-08-19T00:20:45.206Z,7.50
2022-08-19T00:23:47.040Z,7.43
2022-08-19T00:26:48.748Z,7.50
2022-08-19T00:29:52.400Z,7.03
2022-08-19T00:32:56.154Z,7.07
2022-08-19T00:35:57.787Z,7.90
2022-08-19T00:38:59.615Z,7.93
2022-08-19T00:42:01.229Z,8.17
2022-08-19T00:45:03.324Z,8.03
2022-08-19T00:48:05.530Z,7.43
2022-08-19T00:51:16.370Z,7.67
2022-08-19T00:54:18.378Z,7.60
2022-08-19T00:57:23.372Z,7.83
2022-08-19T01:00:25.886Z,7.30
2022-08-19T01:03:27.640Z,7.37
2022-08-19T01:06:29.397Z,7.93
2022-08-19T01:09:31.779Z,7.70
2022-08-19T01:12:33.726Z,7.73
2022-08-19T01:15:39.278Z,7.37
2022-08-19T01:18:42.452Z,7.83
2022-08-19T01:21:51.016Z,7.97
2022-08-19T01:24:52.772Z,7.80
2022-08-19T01:27:59.131Z,8.00
2022-08-19T01:31:27.019Z,7.57
2022-08-19T01:34:29.386Z,8.40
2022-08-19T01:37:31.681Z,8.70
2022-08-19T01:40:34.216Z,7.63
2022-08-19T01:43:36.030Z,7.90
2022-08-19T01:46:37.811Z,7.90
2022-08-19T01:49:39.507Z,8.30
2022-08-19T01:52:42.140Z,8.70
2022-08-19T01:55:44.300Z,8.00
2022-08-19T01:58:48.719Z,7.90
2022-08-19T02:01:50.434Z,7.70
2022-08-19T02:04:52.185Z,8.00
2022-08-19T02:07:53.848Z,7.63
2022-08-19T02:10:55.480Z,8.27
2022-08-19T02:13:57.102Z,7.80
2022-08-19T02:16:58.843Z,7.83
2022-08-19T02:20:01.413Z,7.90
2022-08-19T02:23:03.274Z,7.63
2022-08-19T02:26:04.923Z,8.00
2022-08-19T02:29:06.722Z,8.23
2022-08-19T02:32:08.842Z,8.43
2022-08-19T02:35:12.319Z,8.37
2022-08-19T02:38:27.219Z,8.47
2022-08-19T02:41:30.602Z,9.40
2022-08-19T02:44:32.216Z,9.10
2022-08-19T02:47:34.138Z,9.27
2022-08-19T02:50:39.627Z,8.83
2022-08-19T02:53:41.303Z,8.80
2022-08-19T02:56:43.683Z,8.80
2022-08-19T02:59:45.317Z,8.97
2022-08-19T03:02:47.874Z,8.47
2022-08-19T03:05:56.796Z,8.57
2022-08-19T03:08:58.993Z,9.07
2022-08-19T03:12:00.592Z,8.60
2022-08-19T03:15:02.189Z,8.47
2022-08-19T03:18:03.944Z,8.53
2022-08-19T03:21:06.430Z,8.50
2022-08-19T03:24:09.449Z,8.77
2022-08-19T03:27:11.205Z,8.73
2022-08-19T03:30:13.231Z,8.37
2022-08-19T03:33:18.011Z,8.80
2022-08-19T03:36:21.670Z,8.50
2022-08-19T03:39:24.375Z,9.23
2022-08-19T03:42:38.288Z,8.83
2022-08-19T03:45:49.875Z,9.93
2022-08-19T03:48:56.229Z,8.97
2022-08-19T03:51:58.535Z,9.40
2022-08-19T03:55:00.534Z,8.87
2022-08-19T03:58:02.163Z,9.10
2022-08-19T04:01:03.830Z,9.47
2022-08-19T04:04:05.572Z,9.00
2022-08-19T04:07:07.696Z,9.23
2022-08-19T04:10:10.662Z,9.40
2022-08-19T04:13:12.440Z,10.33
2022-08-19T04:16:14.404Z,9.77
2022-08-19T04:19:17.560Z,9.80
2022-08-19T04:22:19.536Z,9.50
2022-08-19T04:25:21.204Z,9.77
2022-08-19T04:28:22.855Z,9.60
2022-08-19T04:31:29.963Z,9.00
2022-08-19T04:34:31.756Z,8.97
2022-08-19T04:37:35.946Z,9.43
2022-08-19T04:41:07.880Z,8.80
2022-08-19T04:44:09.949Z,9.57
2022-08-19T04:47:11.663Z,8.83
2022-08-19T04:50:13.426Z,8.70
2022-08-19T04:53:15.084Z,9.07
2022-08-19T04:56:18.222Z,9.70
2022-08-19T04:59:21.161Z,9.07
2022-08-19T05:02:26.414Z,8.77
2022-08-19T05:05:28.150Z,9.73
2022-08-19T05:08:30.776Z,10.63
2022-08-19T05:11:34.655Z,8.60
2022-08-19T05:14:37.606Z,8.80
2022-08-19T05:17:59.216Z,7.90
2022-08-19T05:21:24.856Z,8.33
2022-08-19T05:24:27.185Z,8.70
2022-08-19T05:27:29.581Z,10.13
2022-08-19T05:30:46.565Z,9.13
2022-08-19T05:33:49.178Z,9.50
2022-08-19T05:36:51.450Z,7.90
2022-08-19T05:39:53.219Z,9.03
2022-08-19T05:42:55.536Z,9.10
2022-08-19T05:45:57.220Z,10.07
2022-08-19T05:48:59.486Z,10.37
2022-08-19T05:52:03.395Z,8.63
2022-08-19T05:55:05.786Z,9.07
2022-08-19T05:58:08.704Z,8.33
2022-08-19T06:01:11.513Z,8.80
2022-08-19T06:04:19.767Z,10.17
2022-08-19T06:07:21.543Z,9.87
2022-08-19T06:10:23.583Z,8.97
2022-08-19T06:13:26.752Z,9.47
2022-08-19T06:16:36.220Z,7.70
2022-08-19T06:19:41.842Z,10.13
2022-08-19T06:22:45.016Z,6.88
2022-08-19T06:25:46.660Z,8.35
2022-08-19T06:28:48.580Z,7.75
2022-08-19T06:31:51.378Z,7.03
2022-08-19T06:34:53.029Z,7.30
2022-08-19T06:37:55.202Z,6.95
2022-08-19T06:41:07.799Z,7.78
2022-08-19T06:44:10.143Z,9.20
2022-08-19T06:47:23.487Z,7.55
2022-08-19T06:50:30.329Z,11.23
2022-08-19T06:53:31.978Z,7.45
2022-08-19T06:56:37.631Z,7.50
2022-08-19T06:59:39.301Z,7.30
2022-08-19T07:02:44.691Z,7.55
2022-08-19T07:05:49.939Z,7.93
2022-08-19T07:08:52.604Z,7.97
2022-08-19T07:11:58.073Z,8.10
2022-08-19T07:14:59.959Z,8.13
2022-08-19T07:18:01.560Z,7.43
2022-08-19T07:21:06.795Z,10.40
2022-08-19T07:24:11.954Z,8.85
2022-08-19T07:27:15.644Z,14.73
2022-08-19T07:30:17.932Z,6.70
2022-08-19T07:33:20.311Z,7.15
2022-08-19T07:36:26.131Z,7.60
2022-08-19T07:39:29.954Z,8.88
2022-08-19T07:42:31.844Z,8.20
2022-08-19T07:45:33.587Z,6.63
2022-08-19T07:48:35.247Z,6.43
2022-08-19T07:51:37.266Z,6.85
2022-08-19T07:54:39.373Z,7.15
2022-08-19T07:57:41.124Z,7.15
2022-08-19T08:00:43.703Z,6.97
2022-08-19T08:04:04.414Z,10.10
2022-08-19T08:07:31.470Z,7.50
2022-08-19T08:10:33.616Z,6.80
2022-08-19T08:13:36.336Z,6.47
2022-08-19T08:16:46.810Z,6.25
2022-08-19T08:19:51.889Z,9.85
2022-08-19T08:23:12.188Z,11.52
2022-08-19T08:26:15.995Z,6.88
2022-08-19T08:29:17.920Z,7.22
2022-08-19T08:32:19.548Z,6.75
2022-08-19T08:35:22.823Z,6.10
2022-08-19T08:38:24.429Z,6.47
2022-08-19T08:41:35.828Z,7.05
2022-08-19T08:44:37.460Z,7.13
2022-08-19T08:47:49.662Z,6.88
2022-08-19T08:50:55.907Z,7.10
2022-08-19T08:53:58.330Z,6.82
2022-08-19T08:57:00.522Z,7.05
2022-08-19T09:00:06.288Z,6.57
2022-08-19T09:03:23.145Z,6.80
2022-08-19T09:06:25.831Z,6.20
2022-08-19T09:09:33.414Z,6.38
2022-08-19T09:12:54.716Z,6.10
2022-08-19T09:15:59.265Z,6.47
2022-08-19T09:19:06.368Z,6.35
2022-08-19T09:22:08.701Z,6.38
2022-08-19T09:25:13.954Z,6.18
2022-08-19T09:28:26.977Z,6.65
2022-08-19T09:31:30.917Z,6.05
2022-08-19T09:34:37.737Z,6.30
2022-08-19T09:37:40.481Z,6.32
2022-08-19T09:40:42.119Z,6.53
2022-08-19T09:43:47.934Z,6.70
2022-08-19T09:46:50.160Z,6.95
2022-08-19T09:49:51.846Z,7.10
2022-08-19T09:52:57.083Z,7.35
2022-08-19T09:55:59.540Z,6.90
2022-08-19T09:59:02.215Z,7.00
2022-08-19T10:02:10.937Z,7.25
2022-08-19T10:05:31.290Z,7.28
2022-08-19T10:08:34.710Z,7.30
2022-08-19T10:11:40.586Z,7.13
2022-08-19T10:14:46.727Z,6.65
2022-08-19T10:17:55.562Z,6.68
2022-08-19T10:21:04.488Z,6.90
2022-08-19T10:24:06.908Z,6.97
2022-08-19T10:27:11.327Z,6.85
2022-08-19T10:30:13.439Z,6.38
2022-08-19T10:33:19.244Z,7.43
2022-08-19T10:36:38.271Z,7.30
2022-08-19T10:39:58.054Z,7.45
2022-08-19T10:42:59.745Z,6.88
2022-08-19T10:46:01.361Z,7.60
2022-08-19T10:49:04.419Z,7.57
2022-08-19T10:52:27.703Z,7.80
2022-08-19T10:55:53.079Z,7.30
2022-08-19T10:58:54.908Z,7.30
2022-08-19T11:02:00.876Z,7.45
2022-08-19T11:05:12.336Z,8.00
2022-08-19T11:08:23.283Z,7.63
2022-08-19T11:11:25.827Z,7.63
2022-08-19T11:14:28.307Z,7.20
2022-08-19T11:17:34.031Z,7.13
2022-08-19T11:20:35.649Z,7.93
2022-08-19T11:23:37.324Z,7.18
2022-08-19T11:26:39.830Z,7.03
2022-08-19T11:29:41.586Z,7.13
2022-08-19T11:32:48.624Z,6.82
2022-08-19T11:35:50.951Z,7.00
2022-08-19T11:38:52.994Z,7.60
2022-08-19T11:41:54.752Z,6.65
2022-08-19T11:44:56.508Z,7.10
2022-08-19T11:47:58.201Z,7.30
2022-08-19T11:51:00.012Z,7.63
2022-08-19T11:54:02.371Z,7.30
2022-08-19T11:57:04.872Z,7.22
2022-08-19T12:00:08.165Z,7.70
2022-08-19T12:03:09.855Z,7.40
2022-08-19T12:06:14.294Z,5.78
2022-08-19T12:09:16.546Z,6.80
2022-08-19T12:12:18.267Z,6.55
2022-08-19T12:15:19.968Z,6.80
2022-08-19T12:18:21.716Z,6.97
2022-08-19T12:21:26.141Z,6.82
2022-08-19T12:24:27.755Z,6.90
2022-08-19T12:27:34.725Z,6.95
2022-08-19T12:30:42.779Z,6.78
2022-08-19T12:33:44.484Z,6.80
2022-08-19T12:36:46.159Z,7.32
2022-08-19T12:39:47.984Z,6.15
2022-08-19T12:42:50.950Z,7.00
2022-08-19T12:45:52.611Z,6.30
2022-08-19T12:48:56.105Z,6.15
2022-08-19T12:51:59.112Z,6.57
2022-08-19T12:55:00.901Z,7.53
2022-08-19T12:58:02.543Z,6.65
2022-08-19T13:01:08.276Z,6.85
2022-08-19T13:04:09.956Z,6.25
2022-08-19T13:07:11.639Z,6.30
2022-08-19T13:10:16.328Z,6.00
2022-08-19T13:13:18.120Z,6.25
2022-08-19T13:16:21.243Z,6.65
2022-08-19T13:19:24.596Z,6.05
2022-08-19T13:22:26.451Z,6.75
2022-08-19T13:25:28.108Z,6.50
2022-08-19T13:28:52.429Z,6.50
2022-08-19T13:32:13.160Z,6.20
2022-08-19T13:35:20.291Z,6.35
2022-08-19T13:38:22.350Z,6.15
2022-08-19T13:41:24.167Z,6.47
2022-08-19T13:44:25.813Z,6.57
2022-08-19T13:47:27.480Z,6.93
2022-08-19T13:50:32.402Z,6.72
2022-08-19T13:53:34.146Z,6.53
2022-08-19T13:56:36.486Z,6.53
2022-08-19T13:59:38.107Z,6.15
2022-08-19T14:02:40.169Z,6.40
2022-08-19T14:05:41.830Z,6.85
2022-08-19T14:08:46.228Z,6.97
2022-08-19T14:11:48.063Z,6.68
2022-08-19T14:14:50.065Z,7.22
2022-08-19T14:17:51.888Z,7.15
2022-08-19T14:20:53.621Z,6.75
2022-08-19T14:23:56.440Z,6.45
2022-08-19T14:27:01.375Z,6.50
2022-08-19T14:30:04.277Z,7.18
2022-08-19T14:33:07.007Z,6.57
2022-08-19T14:36:08.708Z,6.32
2022-08-19T14:39:10.544Z,5.95
2022-08-19T14:42:12.738Z,6.90
2022-08-19T14:45:14.369Z,6.03
2022-08-19T14:48:19.352Z,6.55
2022-08-19T14:51:22.965Z,6.60
2022-08-19T14:54:24.555Z,6.05
2022-08-19T14:57:27.065Z,6.00
2022-08-19T15:00:28.823Z,6.00
2022-08-19T15:03:30.664Z,6.95
2022-08-19T15:06:32.797Z,6.68
2022-08-19T15:09:35.026Z,6.45
2022-08-19T15:12:36.882Z,6.38
2022-08-19T15:15:40.079Z,5.95
2022-08-19T15:18:45.337Z,6.00
2022-08-19T15:21:47.079Z,6.40
2022-08-19T15:24:48.743Z,6.32
2022-08-19T15:27:51.241Z,6.03
2022-08-19T15:30:53.166Z,6.05
2022-08-19T15:33:58.334Z,6.43
2022-08-19T15:37:00.412Z,6.38
2022-08-19T15:40:02.401Z,6.70
2022-08-19T15:43:04.113Z,6.35
2022-08-19T15:46:05.919Z,6.20
2022-08-19T15:49:08.256Z,6.15
2022-08-19T15:52:10.065Z,6.28
2022-08-19T15:55:19.966Z,6.30
2022-08-19T15:58:51.743Z,6.05
2022-08-19T16:02:12.106Z,6.65
2022-08-19T16:05:36.390Z,6.43
2022-08-19T16:08:48.726Z,6.35
2022-08-19T16:11:56.506Z,6.32
2022-08-19T16:14:59.080Z,6.13
2022-08-19T16:18:04.106Z,6.43
2022-08-19T16:21:08.117Z,6.07
2022-08-19T16:24:10.808Z,6.22
2022-08-19T16:27:12.457Z,6.40
2022-08-19T16:30:14.059Z,6.78
2022-08-19T16:33:22.923Z,6.45
2022-08-19T16:36:25.180Z,6.45
2022-08-19T16:39:27.004Z,6.90
2022-08-19T16:42:28.636Z,6.60
2022-08-19T16:45:30.433Z,8.55
2022-08-19T16:48:32.978Z,7.22
2022-08-19T16:51:34.721Z,6.57
2022-08-19T16:54:39.402Z,6.40
2022-08-19T16:57:41.265Z,7.03
2022-08-19T17:00:42.918Z,7.57
2022-08-19T17:03:44.649Z,7.20
2022-08-19T17:06:46.318Z,10.43
2022-08-19T17:09:47.929Z,9.25
2022-08-19T17:12:53.662Z,9.75
2022-08-19T17:15:56.146Z,17.92
2022-08-19T17:18:58.474Z,8.30
2022-08-19T17:22:00.111Z,8.50
2022-08-19T17:25:01.731Z,8.23
2022-08-19T17:28:10.583Z,9.27
2022-08-19T17:31:12.215Z,10.02
2022-08-19T17:34:13.913Z,8.93
2022-08-19T17:37:15.726Z,9.73
2022-08-19T17:40:23.237Z,9.27
2022-08-19T17:43:32.768Z,9.50
2022-08-19T17:46:35.939Z,8.70
2022-08-19T17:49:37.622Z,8.80
2022-08-19T17:52:39.924Z,8.63
2022-08-19T17:55:41.572Z,8.40
2022-08-19T17:58:43.268Z,8.65
2022-08-19T18:01:53.827Z,8.60
2022-08-19T18:04:56.291Z,8.70
2022-08-19T18:07:59.148Z,8.85
2022-08-19T18:11:00.768Z,7.73
2022-08-19T18:14:02.580Z,8.20
2022-08-19T18:17:10.020Z,8.60
2022-08-19T18:20:13.560Z,8.50
2022-08-19T18:23:44.846Z,8.13
2022-08-19T18:26:36.859Z,9.40
2022-08-19T18:29:40.161Z,8.17
2022-08-19T18:32:42.512Z,8.57
2022-08-19T18:35:46.188Z,8.33
2022-08-19T18:39:06.974Z,8.90
2022-08-19T18:42:32.618Z,7.20
2022-08-19T18:45:52.954Z,7.83
2022-08-19T18:49:07.779Z,7.70
2022-08-19T18:52:09.543Z,8.10
2022-08-19T18:55:11.726Z,8.00
2022-08-19T18:58:13.858Z,8.13
2022-08-19T19:01:21.310Z,9.37
2022-08-19T19:04:29.158Z,8.70
2022-08-19T19:07:30.794Z,9.40
2022-08-19T19:10:33.126Z,9.23
2022-08-19T19:13:35.467Z,11.00
2022-08-19T19:16:41.002Z,8.13
2022-08-19T19:19:44.062Z,9.20
2022-08-19T19:22:45.788Z,8.13
2022-08-19T19:25:50.969Z,7.43
2022-08-19T19:28:52.955Z,7.93
2022-08-19T19:31:56.071Z,8.33
2022-08-19T19:34:57.715Z,8.33
2022-08-19T19:37:59.581Z,8.37
2022-08-19T19:41:01.384Z,8.77
2022-08-19T19:44:29.392Z,8.33
2022-08-19T19:47:28.155Z,8.50
2022-08-19T19:50:31.281Z,8.60
2022-08-19T19:53:33.900Z,8.20
2022-08-19T19:56:35.643Z,8.17
2022-08-19T19:59:37.379Z,7.90
2022-08-19T20:02:50.407Z,7.57
2022-08-19T20:05:52.628Z,7.90
2022-08-19T20:09:10.331Z,7.87
2022-08-19T20:12:11.930Z,8.47
2022-08-19T20:15:14.898Z,8.33
2022-08-19T20:18:16.548Z,8.20
2022-08-19T20:21:18.223Z,8.60
2022-08-19T20:24:22.618Z,8.10
2022-08-19T20:27:24.227Z,7.80
2022-08-19T20:30:28.337Z,8.40
2022-08-19T20:33:32.586Z,8.53
2022-08-19T20:36:34.531Z,8.47
2022-08-19T20:39:36.303Z,8.10
2022-08-19T20:42:40.290Z,7.93
2022-08-19T20:45:41.935Z,7.93
2022-08-19T20:48:43.743Z,8.07
2022-08-19T20:51:47.067Z,8.73
2022-08-19T20:54:48.673Z,7.60
2022-08-19T20:57:51.634Z,8.20
2022-08-19T21:00:57.245Z,8.53
2022-08-19T21:03:59.037Z,8.73
2022-08-19T21:07:00.666Z,7.63
2022-08-19T21:10:02.624Z,8.93
2022-08-19T21:13:06.444Z,8.87
2022-08-19T21:16:09.195Z,8.67
2022-08-19T21:19:11.176Z,8.73
2022-08-19T21:22:12.850Z,8.87
2022-08-19T21:25:15.427Z,8.87
2022-08-19T21:28:34.193Z,8.63
2022-08-19T21:31:37.507Z,8.73
2022-08-19T21:34:39.162Z,8.40
2022-08-19T21:37:41.017Z,9.17
2022-08-19T21:40:42.659Z,8.60
2022-08-19T21:43:44.280Z,8.70
2022-08-19T21:46:45.974Z,9.13
2022-08-19T21:49:52.222Z,9.20
2022-08-19T21:52:54.455Z,8.93
2022-08-19T21:55:56.081Z,9.07
2022-08-19T21:58:57.752Z,9.30
2022-08-19T22:02:15.847Z,9.17
2022-08-19T22:05:23.253Z,9.00
2022-08-19T22:08:26.442Z,9.00
2022-08-19T22:11:28.414Z,8.93
2022-08-19T22:14:30.070Z,9.00
2022-08-19T22:17:33.307Z,9.23
2022-08-19T22:20:34.945Z,9.17
2022-08-19T22:23:36.872Z,9.77
2022-08-19T22:26:38.492Z,9.00
2022-08-19T22:29:40.247Z,8.93
2022-08-19T22:32:45.277Z,9.13
2022-08-19T22:35:47.203Z,8.70
2022-08-19T22:38:48.885Z,9.30
2022-08-19T22:41:50.535Z,9.73
2022-08-19T22:44:52.234Z,9.53
2022-08-19T22:47:55.266Z,9.30
2022-08-19T22:51:16.144Z,9.60
2022-08-19T22:54:18.098Z,9.47
2022-08-19T22:57:20.855Z,9.90
2022-08-19T23:00:24.287Z,9.50
2022-08-19T23:03:26.119Z,9.47
2022-08-19T23:06:34.521Z,9.53
2022-08-19T23:09:37.394Z,9.97
2022-08-19T23:12:43.669Z,9.63
2022-08-19T23:15:46.252Z,9.63
2022-08-19T23:18:48.169Z,9.33
2022-08-19T23:21:50.136Z,9.80
2022-08-19T23:24:51.915Z,9.73
2022-08-19T23:28:16.571Z,10.30
2022-08-19T23:31:18.282Z,9.83
2022-08-19T23:34:19.960Z,9.40
2022-08-19T23:37:21.615Z,9.77
2022-08-19T23:40:23.333Z,9.23
2022-08-19T23:43:25.374Z,9.40
2022-08-19T23:46:27.463Z,9.90
2022-08-19T23:49:31.374Z,9.30
2022-08-19T23:53:02.659Z,10.13
2022-08-19T23:56:04.930Z,10.10
2022-08-19T23:59:06.787Z,9.63
